createdAt,value
2019-05-30T00:00:07.755Z,7.60
2019-05-30T00:02:25.605Z,7.57
2019-05-30T00:04:54.104Z,8.33
2019-05-30T00:07:22.264Z,7.80
2019-05-30T00:09:50.267Z,7.80
2019-05-30T00:12:18.247Z,8.50
2019-05-30T00:14:46.378Z,7.83
2019-05-30T00:17:14.368Z,10.43
2019-05-30T00:19:42.416Z,8.03
2019-05-30T00:22:10.380Z,9.00
2019-05-30T00:24:38.389Z,8.47
2019-05-30T00:27:06.672Z,8.80
2019-05-30T00:29:34.817Z,7.90
2019-05-30T00:32:03.978Z,8.10
2019-05-30T00:34:32.480Z,8.07
2019-05-30T00:37:01.968Z,8.40
2019-05-30T00:39:30.252Z,7.70
2019-05-30T00:41:58.175Z,8.13
2019-05-30T00:44:26.197Z,8.10
2019-05-30T00:46:54.170Z,8.00
2019-05-30T00:49:22.159Z,8.30
2019-05-30T00:51:50.107Z,7.70
2019-05-30T00:54:18.172Z,8.10
2019-05-30T00:56:46.180Z,7.43
2019-05-30T00:59:14.233Z,7.63
2019-05-30T01:01:42.142Z,7.33
2019-05-30T01:04:10.112Z,7.73
2019-05-30T01:06:38.157Z,8.43
2019-05-30T01:09:07.399Z,7.80
2019-05-30T01:11:35.650Z,7.77
2019-05-30T01:14:03.788Z,7.43
2019-05-30T01:16:31.875Z,7.93
2019-05-30T01:19:00.878Z,7.60
2019-05-30T01:21:29.160Z,7.70
2019-05-30T01:23:57.246Z,7.60
2019-05-30T01:26:25.150Z,8.57
2019-05-30T01:28:53.138Z,8.30
2019-05-30T01:31:21.114Z,7.87
2019-05-30T01:33:49.056Z,7.97
2019-05-30T01:36:17.039Z,7.30
2019-05-30T01:38:44.997Z,7.70
2019-05-30T01:41:13.017Z,7.53
2019-05-30T01:43:41.036Z,7.90
2019-05-30T01:46:09.025Z,7.30
2019-05-30T01:48:37.009Z,7.67
2019-05-30T01:51:05.061Z,7.60
2019-05-30T01:53:33.041Z,7.50
2019-05-30T01:56:01.026Z,7.80
2019-05-30T01:58:29.056Z,7.60
2019-05-30T02:00:57.039Z,8.23
2019-05-30T02:03:25.013Z,8.03
2019-05-30T02:05:52.990Z,8.00
2019-05-30T02:08:21.108Z,8.10
2019-05-30T02:10:49.173Z,8.10
2019-05-30T02:13:17.184Z,7.97
2019-05-30T02:15:45.192Z,8.00
2019-05-30T02:18:13.217Z,8.37
2019-05-30T02:20:41.131Z,7.97
2019-05-30T02:23:09.950Z,8.33
2019-05-30T02:25:38.673Z,7.50
2019-05-30T02:28:06.667Z,8.07
2019-05-30T02:30:34.721Z,7.60
2019-05-30T02:33:03.026Z,7.53
2019-05-30T02:35:31.477Z,7.93
2019-05-30T02:38:00.854Z,7.47
2019-05-30T02:40:29.658Z,7.67
2019-05-30T02:42:57.617Z,8.43
2019-05-30T02:45:25.605Z,8.20
2019-05-30T02:47:53.548Z,7.50
2019-05-30T02:50:21.448Z,7.57
2019-05-30T02:52:49.436Z,7.47
2019-05-30T02:55:17.484Z,8.70
2019-05-30T02:57:45.460Z,8.00
2019-05-30T03:00:17.036Z,8.23
2019-05-30T03:02:43.250Z,7.50
2019-05-30T03:05:12.632Z,7.90
2019-05-30T03:07:40.931Z,8.50
2019-05-30T03:10:12.260Z,8.10
2019-05-30T03:12:38.729Z,9.07
2019-05-30T03:15:09.293Z,8.00
2019-05-30T03:17:36.576Z,8.43
2019-05-30T03:20:13.665Z,8.73
2019-05-30T03:22:35.171Z,8.73
2019-05-30T03:25:04.631Z,8.80
2019-05-30T03:27:32.758Z,9.10
2019-05-30T03:30:04.250Z,9.03
2019-05-30T03:33:01.998Z,9.00
2019-05-30T03:34:59.966Z,8.90
2019-05-30T03:37:30.317Z,9.17
2019-05-30T03:39:57.621Z,9.27
2019-05-30T03:42:25.607Z,9.37
2019-05-30T03:44:53.652Z,9.50
2019-05-30T03:47:23.031Z,9.40
2019-05-30T03:49:51.490Z,9.30
2019-05-30T03:52:20.154Z,9.70
2019-05-30T03:54:49.532Z,9.73
2019-05-30T03:57:19.689Z,8.40
2019-05-30T03:59:50.322Z,9.50
2019-05-30T04:02:54.590Z,9.53
2019-05-30T04:05:07.550Z,9.53
2019-05-30T04:07:38.309Z,9.40
2019-05-30T04:10:08.989Z,9.93
2019-05-30T04:12:59.427Z,9.73
2019-05-30T04:15:31.387Z,9.70
2019-05-30T04:17:59.314Z,9.70
2019-05-30T04:20:27.267Z,9.20
2019-05-30T04:22:55.252Z,10.10
2019-05-30T04:25:23.207Z,9.07
2019-05-30T04:27:51.331Z,8.90
2019-05-30T04:30:19.339Z,9.53
2019-05-30T04:32:47.253Z,9.23
2019-05-30T04:35:16.878Z,9.80
2019-05-30T04:37:45.042Z,9.60
2019-05-30T04:40:13.341Z,9.80
2019-05-30T04:42:42.718Z,9.60
2019-05-30T04:45:11.775Z,10.23
2019-05-30T04:47:40.348Z,9.13
2019-05-30T04:50:10.151Z,9.80
2019-05-30T04:52:38.233Z,10.67
2019-05-30T04:55:06.328Z,10.87
2019-05-30T04:57:34.268Z,9.87
2019-05-30T05:00:02.286Z,9.70
2019-05-30T05:02:30.319Z,10.13
2019-05-30T05:04:58.384Z,10.30
2019-05-30T05:07:26.408Z,10.40
2019-05-30T05:09:54.431Z,10.57
2019-05-30T05:12:22.557Z,10.77
2019-05-30T05:14:50.594Z,10.23
2019-05-30T05:17:18.903Z,10.30
2019-05-30T05:19:47.061Z,10.30
2019-05-30T05:22:14.994Z,10.40
2019-05-30T05:24:43.062Z,9.80
2019-05-30T05:27:11.028Z,9.67
2019-05-30T05:29:38.993Z,9.97
2019-05-30T05:32:06.989Z,9.67
2019-05-30T05:34:34.961Z,9.67
2019-05-30T05:37:02.937Z,10.03
2019-05-30T05:39:30.998Z,10.33
2019-05-30T05:41:58.972Z,9.77
2019-05-30T05:44:26.914Z,9.80
2019-05-30T05:46:54.800Z,9.60
2019-05-30T05:49:22.800Z,9.33
2019-05-30T05:51:50.739Z,10.40
2019-05-30T05:54:18.924Z,9.67
2019-05-30T05:56:46.894Z,9.73
2019-05-30T05:59:14.854Z,9.40
2019-05-30T06:01:42.811Z,9.57
2019-05-30T06:04:13.388Z,9.67
2019-05-30T06:06:40.300Z,10.13
2019-05-30T06:09:08.354Z,10.30
2019-05-30T06:11:36.355Z,10.20
2019-05-30T06:14:04.437Z,9.93
2019-05-30T06:16:32.464Z,12.80
2019-05-30T06:19:00.547Z,9.87
2019-05-30T06:21:28.522Z,10.90
2019-05-30T06:23:56.522Z,10.90
2019-05-30T06:26:24.552Z,10.40
2019-05-30T06:28:52.538Z,10.57
2019-05-30T06:31:20.506Z,10.93
2019-05-30T06:33:48.545Z,10.30
2019-05-30T06:36:16.432Z,11.27
2019-05-30T06:38:44.411Z,10.70
2019-05-30T06:41:12.394Z,10.33
2019-05-30T06:43:40.328Z,10.23
2019-05-30T06:46:08.318Z,10.60
2019-05-30T06:48:36.283Z,9.83
2019-05-30T06:51:04.235Z,10.60
2019-05-30T06:53:32.220Z,9.90
2019-05-30T06:56:00.195Z,11.03
2019-05-30T06:58:41.561Z,10.10
2019-05-30T07:00:57.775Z,10.20
2019-05-30T07:03:26.410Z,11.27
2019-05-30T07:05:55.118Z,10.80
2019-05-30T07:08:24.599Z,10.30
2019-05-30T07:10:52.925Z,10.50
2019-05-30T07:13:20.914Z,11.20
2019-05-30T07:15:48.965Z,11.23
2019-05-30T07:18:16.941Z,11.17
2019-05-30T07:20:45.036Z,11.27
2019-05-30T07:23:13.080Z,10.50
2019-05-30T07:25:41.849Z,11.17
2019-05-30T07:28:09.768Z,10.20
2019-05-30T07:30:37.686Z,9.93
2019-05-30T07:33:05.664Z,10.83
2019-05-30T07:35:34.148Z,10.70
2019-05-30T07:38:02.142Z,10.10
2019-05-30T07:40:30.627Z,10.63
2019-05-30T07:42:58.582Z,10.93
2019-05-30T07:45:26.826Z,10.70
2019-05-30T07:47:54.934Z,10.17
2019-05-30T07:50:22.967Z,10.87
2019-05-30T07:52:50.931Z,10.27
2019-05-30T07:55:19.030Z,10.90
2019-05-30T07:57:47.009Z,9.80
2019-05-30T08:00:15.270Z,9.87
2019-05-30T08:02:43.253Z,10.00
2019-05-30T08:05:23.464Z,10.27
2019-05-30T08:07:41.139Z,11.33
2019-05-30T08:10:09.530Z,10.27
2019-05-30T08:12:38.409Z,11.10
2019-05-30T08:15:06.625Z,10.30
2019-05-30T08:17:35.759Z,10.30
2019-05-30T08:20:04.342Z,9.90
2019-05-30T08:22:32.351Z,10.17
2019-05-30T08:25:00.415Z,9.80
2019-05-30T08:27:28.493Z,10.30
2019-05-30T08:29:56.531Z,9.73
2019-05-30T08:32:24.489Z,9.90
2019-05-30T08:34:52.489Z,9.60
2019-05-30T08:37:20.416Z,8.50
2019-05-30T08:39:48.400Z,8.57
2019-05-30T08:42:16.382Z,8.90
2019-05-30T08:44:44.348Z,9.00
2019-05-30T08:47:12.452Z,8.70
2019-05-30T08:49:40.505Z,9.13
2019-05-30T08:52:08.444Z,8.53
2019-05-30T08:54:36.496Z,8.60
2019-05-30T08:57:04.501Z,8.60
2019-05-30T08:59:32.456Z,9.00
2019-05-30T09:02:00.490Z,9.37
2019-05-30T09:04:28.536Z,8.17
2019-05-30T09:06:56.462Z,8.80
2019-05-30T09:09:24.433Z,8.90
2019-05-30T09:11:52.418Z,8.50
2019-05-30T09:14:20.453Z,8.77
2019-05-30T09:16:49.612Z,8.87
2019-05-30T09:19:18.017Z,8.30
2019-05-30T09:21:47.381Z,8.47
2019-05-30T09:24:15.417Z,8.23
2019-05-30T09:26:46.898Z,11.50
2019-05-30T09:29:13.111Z,10.10
2019-05-30T09:31:44.556Z,8.80
2019-05-30T09:34:14.033Z,8.77
2019-05-30T09:36:43.152Z,8.53
2019-05-30T09:39:11.241Z,9.93
2019-05-30T09:41:40.967Z,10.20
2019-05-30T09:44:09.816Z,9.23
2019-05-30T09:46:37.810Z,9.30
2019-05-30T09:49:07.043Z,8.57
2019-05-30T09:51:36.202Z,8.70
2019-05-30T09:54:05.485Z,8.97
2019-05-30T09:56:33.833Z,8.43
2019-05-30T09:59:01.782Z,9.10
2019-05-30T10:01:29.796Z,9.30
2019-05-30T10:03:57.784Z,8.20
2019-05-30T10:06:29.532Z,10.13
2019-05-30T10:08:55.446Z,8.40
2019-05-30T10:11:23.434Z,9.80
2019-05-30T10:13:52.938Z,9.03
2019-05-30T10:16:21.158Z,8.90
2019-05-30T10:18:49.203Z,9.33
2019-05-30T10:21:17.153Z,8.60
2019-05-30T10:23:46.179Z,9.37
2019-05-30T10:26:14.829Z,9.03
2019-05-30T10:28:43.109Z,9.17
2019-05-30T10:31:11.069Z,10.27
2019-05-30T10:33:39.135Z,9.37
2019-05-30T10:36:07.127Z,9.17
2019-05-30T10:38:35.064Z,8.87
2019-05-30T10:41:03.069Z,7.97
2019-05-30T10:43:31.011Z,8.97
2019-05-30T10:45:58.977Z,8.83
2019-05-30T10:48:26.876Z,9.20
2019-05-30T10:50:55.025Z,8.10
2019-05-30T10:53:23.033Z,8.70
2019-05-30T10:55:53.041Z,8.93
2019-05-30T10:58:20.692Z,9.60
2019-05-30T11:00:51.277Z,9.30
2019-05-30T11:03:20.947Z,8.83
2019-05-30T11:05:55.400Z,10.20
2019-05-30T11:08:24.821Z,9.10
2019-05-30T11:10:52.859Z,8.97
2019-05-30T11:13:20.867Z,9.27
2019-05-30T11:15:50.456Z,9.00
2019-05-30T11:18:19.982Z,10.23
2019-05-30T11:20:48.009Z,8.27
2019-05-30T11:23:16.027Z,8.43
2019-05-30T11:25:44.217Z,8.80
2019-05-30T11:28:12.176Z,10.30
2019-05-30T11:30:40.229Z,8.93
2019-05-30T11:33:08.232Z,9.70
2019-05-30T11:35:36.403Z,9.77
2019-05-30T11:38:04.474Z,9.20
2019-05-30T11:40:32.440Z,10.20
2019-05-30T11:43:00.461Z,10.07
2019-05-30T11:45:29.988Z,9.07
2019-05-30T11:47:58.175Z,9.10
2019-05-30T11:50:27.163Z,9.23
2019-05-30T11:52:55.859Z,8.13
2019-05-30T11:55:23.934Z,9.30
2019-05-30T11:57:52.102Z,8.80
2019-05-30T12:00:21.585Z,9.47
2019-05-30T12:02:50.197Z,8.63
2019-05-30T12:05:18.378Z,8.37
2019-05-30T12:07:46.262Z,7.50
2019-05-30T12:10:15.106Z,10.43
2019-05-30T12:12:43.453Z,9.50
2019-05-30T12:15:11.503Z,9.30
2019-05-30T12:17:39.490Z,9.00
2019-05-30T12:20:07.632Z,8.83
2019-05-30T12:22:35.687Z,8.97
2019-05-30T12:25:03.927Z,8.47
2019-05-30T12:27:31.831Z,8.53
2019-05-30T12:30:00.387Z,9.37
2019-05-30T12:32:28.801Z,8.33
2019-05-30T12:34:56.772Z,8.00
2019-05-30T12:37:24.725Z,8.33
2019-05-30T12:39:52.711Z,8.57
2019-05-30T12:42:20.676Z,8.00
2019-05-30T12:44:48.641Z,7.70
2019-05-30T12:47:16.705Z,9.40
2019-05-30T12:49:44.682Z,7.63
2019-05-30T12:52:12.641Z,8.53
2019-05-30T12:54:40.607Z,8.20
2019-05-30T12:57:08.649Z,7.90
2019-05-30T12:59:36.593Z,8.37
2019-05-30T13:02:04.653Z,8.60
2019-05-30T13:04:32.679Z,8.67
2019-05-30T13:07:01.287Z,9.27
2019-05-30T13:09:29.279Z,9.10
2019-05-30T13:11:58.430Z,8.67
2019-05-30T13:14:26.425Z,9.20
2019-05-30T13:16:55.525Z,8.50
2019-05-30T13:19:23.700Z,9.60
2019-05-30T13:21:53.773Z,9.77
2019-05-30T13:24:21.277Z,8.90
2019-05-30T13:26:49.245Z,9.60
2019-05-30T13:29:17.192Z,8.33
2019-05-30T13:31:45.171Z,8.90
2019-05-30T13:34:13.167Z,8.70
2019-05-30T13:36:41.206Z,9.70
2019-05-30T13:39:09.170Z,8.23
2019-05-30T13:41:37.177Z,8.53
2019-05-30T13:44:06.845Z,8.97
2019-05-30T13:46:34.761Z,8.20
2019-05-30T13:49:02.696Z,8.70
2019-05-30T13:51:30.710Z,8.30
2019-05-30T13:53:58.942Z,8.90
2019-05-30T13:56:26.927Z,8.30
2019-05-30T13:58:54.861Z,9.03
2019-05-30T14:01:22.862Z,8.60
2019-05-30T14:03:50.932Z,8.73
2019-05-30T14:06:18.878Z,8.20
2019-05-30T14:08:46.824Z,8.60
2019-05-30T14:11:14.870Z,8.57
2019-05-30T14:13:42.925Z,8.57
2019-05-30T14:16:11.165Z,8.53
2019-05-30T14:18:39.155Z,8.50
2019-05-30T14:21:09.265Z,8.67
2019-05-30T14:23:37.364Z,8.93
2019-05-30T14:26:05.391Z,9.20
2019-05-30T14:28:33.498Z,9.03
2019-05-30T14:31:03.382Z,8.80
2019-05-30T14:33:31.273Z,9.77
2019-05-30T14:35:59.231Z,9.13
2019-05-30T14:38:27.244Z,9.40
2019-05-30T14:40:55.195Z,8.63
2019-05-30T14:43:23.162Z,9.60
2019-05-30T14:45:51.210Z,8.87
2019-05-30T14:48:19.270Z,9.70
2019-05-30T14:50:47.311Z,9.20
2019-05-30T14:53:15.277Z,9.40
2019-05-30T14:55:43.275Z,9.40
2019-05-30T14:58:11.289Z,9.53
2019-05-30T15:00:39.240Z,9.30
2019-05-30T15:03:10.126Z,9.50
2019-05-30T15:05:36.919Z,9.50
2019-05-30T15:08:06.382Z,9.23
2019-05-30T15:10:34.491Z,8.70
2019-05-30T15:13:02.606Z,8.77
2019-05-30T15:15:30.824Z,10.77
2019-05-30T15:17:58.837Z,9.40
2019-05-30T15:20:27.092Z,10.30
2019-05-30T15:22:55.177Z,9.07
2019-05-30T15:25:23.221Z,9.53
2019-05-30T15:27:51.200Z,9.27
2019-05-30T15:30:19.348Z,9.87
2019-05-30T15:32:47.363Z,9.40
2019-05-30T15:35:16.060Z,8.67
2019-05-30T15:37:45.240Z,8.90
2019-05-30T15:40:15.085Z,9.00
2019-05-30T15:42:43.227Z,9.20
2019-05-30T15:45:12.019Z,10.47
2019-05-30T15:47:40.156Z,9.00
2019-05-30T15:50:08.726Z,9.63
2019-05-30T15:52:36.764Z,8.83
2019-05-30T15:55:04.967Z,10.00
2019-05-30T15:57:32.856Z,10.70
2019-05-30T16:00:00.819Z,9.47
2019-05-30T16:02:28.846Z,9.50
2019-05-30T16:04:56.926Z,10.23
2019-05-30T16:07:25.046Z,9.90
2019-05-30T16:09:52.937Z,9.60
2019-05-30T16:12:21.356Z,9.43
2019-05-30T16:14:49.463Z,9.00
2019-05-30T16:17:17.825Z,9.90
2019-05-30T16:19:45.807Z,9.60
2019-05-30T16:22:14.298Z,10.10
2019-05-30T16:24:42.388Z,10.17
2019-05-30T16:27:10.331Z,10.23
2019-05-30T16:29:38.388Z,11.03
2019-05-30T16:32:06.401Z,11.00
2019-05-30T16:34:34.354Z,10.90
2019-05-30T16:37:02.416Z,11.80
2019-05-30T16:39:30.420Z,10.80
2019-05-30T16:41:58.366Z,11.33
2019-05-30T16:44:26.750Z,12.20
2019-05-30T16:46:54.974Z,11.60
2019-05-30T16:49:22.975Z,11.50
2019-05-30T16:51:50.979Z,11.87
2019-05-30T16:54:19.272Z,12.20
2019-05-30T16:56:47.293Z,11.30
2019-05-30T16:59:16.493Z,11.50
2019-05-30T17:01:44.565Z,11.70
2019-05-30T17:04:12.550Z,12.23
2019-05-30T17:06:40.596Z,11.93
2019-05-30T17:09:08.584Z,11.00
2019-05-30T17:11:36.659Z,11.93
2019-05-30T17:14:04.876Z,12.60
2019-05-30T17:16:32.780Z,12.13
2019-05-30T17:19:00.820Z,12.20
2019-05-30T17:21:28.878Z,12.90
2019-05-30T17:23:56.891Z,14.10
2019-05-30T17:26:25.370Z,13.07
2019-05-30T17:28:53.377Z,13.73
2019-05-30T17:31:21.855Z,13.37
2019-05-30T17:33:49.914Z,13.33
2019-05-30T17:36:18.125Z,13.07
2019-05-30T17:38:46.174Z,11.73
2019-05-30T17:41:14.210Z,13.77
2019-05-30T17:43:42.192Z,11.37
2019-05-30T17:46:10.148Z,11.03
2019-05-30T17:48:38.221Z,12.70
2019-05-30T17:51:06.194Z,11.30
2019-05-30T17:53:34.283Z,11.83
2019-05-30T17:56:02.355Z,12.13
2019-05-30T17:58:30.396Z,12.67
2019-05-30T18:00:58.390Z,12.40
2019-05-30T18:03:26.455Z,12.50
2019-05-30T18:05:54.432Z,11.20
2019-05-30T18:08:22.846Z,11.97
2019-05-30T18:10:53.879Z,11.50
2019-05-30T18:13:21.002Z,12.43
2019-05-30T18:15:49.072Z,12.50
2019-05-30T18:18:17.064Z,12.60
2019-05-30T18:20:48.418Z,12.70
2019-05-30T18:23:14.816Z,11.50
2019-05-30T18:25:42.794Z,12.20
2019-05-30T18:28:10.749Z,13.63
2019-05-30T18:30:39.702Z,13.57
2019-05-30T18:33:07.604Z,19.27
2019-05-30T18:35:35.588Z,15.13
2019-05-30T18:38:03.649Z,13.10
2019-05-30T18:40:33.214Z,14.07
2019-05-30T18:43:01.321Z,12.53
2019-05-30T18:45:36.695Z,13.17
2019-05-30T18:48:04.757Z,13.80
2019-05-30T18:50:33.525Z,13.80
2019-05-30T18:53:01.514Z,13.00
2019-05-30T18:55:30.646Z,13.57
2019-05-30T18:57:59.763Z,12.87
2019-05-30T19:00:29.056Z,13.30
2019-05-30T19:02:57.159Z,12.90
2019-05-30T19:05:26.487Z,12.40
2019-05-30T19:07:54.512Z,12.10
2019-05-30T19:10:22.468Z,14.50
2019-05-30T19:12:50.498Z,13.63
2019-05-30T19:15:18.654Z,12.90
2019-05-30T19:17:46.749Z,14.10
2019-05-30T19:20:14.883Z,13.60
2019-05-30T19:22:42.914Z,13.07
2019-05-30T19:25:11.055Z,14.03
2019-05-30T19:27:39.008Z,14.27
2019-05-30T19:30:07.394Z,13.13
2019-05-30T19:32:35.369Z,13.70
2019-05-30T19:35:03.709Z,12.60
2019-05-30T19:37:31.713Z,13.37
2019-05-30T19:39:59.666Z,13.27
2019-05-30T19:42:27.651Z,13.07
2019-05-30T19:44:55.640Z,12.70
2019-05-30T19:47:23.689Z,13.10
2019-05-30T19:49:51.657Z,21.93
2019-05-30T19:52:19.625Z,13.00
2019-05-30T19:54:47.608Z,14.53
2019-05-30T19:57:15.770Z,14.50
2019-05-30T19:59:43.777Z,14.03
2019-05-30T20:02:11.806Z,13.50
2019-05-30T20:04:40.611Z,13.13
2019-05-30T20:07:08.650Z,14.00
2019-05-30T20:09:36.729Z,14.57
2019-05-30T20:12:08.624Z,14.70
2019-05-30T20:14:35.086Z,14.47
2019-05-30T20:17:03.418Z,13.43
2019-05-30T20:19:31.689Z,13.97
2019-05-30T20:21:59.945Z,13.60
2019-05-30T20:24:27.918Z,14.50
2019-05-30T20:26:55.925Z,14.53
2019-05-30T20:29:23.965Z,14.37
2019-05-30T20:31:51.945Z,14.00
2019-05-30T20:34:19.910Z,14.93
2019-05-30T20:36:47.889Z,14.60
2019-05-30T20:39:15.872Z,15.60
2019-05-30T20:41:43.822Z,15.00
2019-05-30T20:44:11.790Z,15.13
2019-05-30T20:46:39.765Z,16.20
2019-05-30T20:49:07.723Z,15.17
2019-05-30T20:51:37.203Z,15.80
2019-05-30T20:54:05.448Z,15.27
2019-05-30T20:56:33.362Z,15.50
2019-05-30T20:59:01.341Z,15.23
2019-05-30T21:01:29.299Z,16.10
2019-05-30T21:03:57.297Z,15.80
2019-05-30T21:06:25.347Z,16.23
2019-05-30T21:08:53.685Z,22.00
2019-05-30T21:11:21.637Z,16.80
2019-05-30T21:13:51.731Z,19.77
2019-05-30T21:16:21.241Z,18.67
2019-05-30T21:18:50.749Z,16.83
2019-05-30T21:21:18.710Z,17.03
2019-05-30T21:23:46.762Z,16.27
2019-05-30T21:26:14.811Z,16.43
2019-05-30T21:28:43.132Z,15.90
2019-05-30T21:31:11.221Z,15.87
2019-05-30T21:33:39.900Z,15.10
2019-05-30T21:36:08.258Z,15.57
2019-05-30T21:38:36.221Z,15.20
2019-05-30T21:41:04.194Z,14.97
2019-05-30T21:43:32.077Z,17.63
2019-05-30T21:46:00.014Z,14.63
2019-05-30T21:48:27.901Z,15.77
2019-05-30T21:50:55.867Z,14.37
2019-05-30T21:53:23.821Z,14.27
2019-05-30T21:55:51.990Z,14.57
2019-05-30T21:58:20.009Z,13.70
2019-05-30T22:01:10.016Z,13.07
2019-05-30T22:03:37.972Z,13.40
2019-05-30T22:06:06.034Z,14.60
2019-05-30T22:08:33.963Z,14.40
2019-05-30T22:11:01.949Z,13.90
2019-05-30T22:13:29.920Z,14.60
2019-05-30T22:15:57.969Z,14.50
2019-05-30T22:18:25.948Z,14.60
2019-05-30T22:20:53.964Z,14.03
2019-05-30T22:23:21.898Z,14.47
2019-05-30T22:25:50.316Z,14.83
2019-05-30T22:28:18.340Z,13.90
2019-05-30T22:30:46.392Z,13.50
2019-05-30T22:33:14.281Z,12.80
2019-05-30T22:35:42.704Z,14.30
2019-05-30T22:38:10.716Z,14.40
2019-05-30T22:40:38.729Z,15.47
2019-05-30T22:43:06.682Z,13.70
2019-05-30T22:45:34.753Z,15.40
2019-05-30T22:48:02.701Z,14.10
2019-05-30T22:50:30.712Z,13.60
2019-05-30T22:52:58.634Z,14.27
2019-05-30T22:55:26.615Z,15.33
2019-05-30T22:57:54.616Z,16.40
2019-05-30T23:00:23.459Z,17.10
2019-05-30T23:02:51.961Z,17.57
2019-05-30T23:05:20.019Z,17.30
2019-05-30T23:07:47.978Z,18.13
2019-05-30T23:10:16.151Z,17.90
2019-05-30T23:12:44.303Z,18.90
2019-05-30T23:15:12.736Z,17.40
2019-05-30T23:17:40.713Z,18.37
2019-05-30T23:20:08.785Z,18.53
2019-05-30T23:22:36.653Z,18.50
2019-05-30T23:25:04.903Z,19.07
2019-05-30T23:27:32.861Z,19.07
2019-05-30T23:30:00.858Z,18.77
2019-05-30T23:32:28.789Z,19.20
2019-05-30T23:34:56.702Z,18.97
2019-05-30T23:37:24.765Z,18.73
2019-05-30T23:39:52.702Z,19.07
2019-05-30T23:42:20.695Z,18.53
2019-05-30T23:44:49.076Z,17.77
2019-05-30T23:47:17.153Z,19.37
2019-05-30T23:49:45.120Z,17.67
2019-05-30T23:52:13.068Z,17.83
2019-05-30T23:54:41.054Z,17.67
2019-05-30T23:57:08.998Z,17.13
2019-05-30T23:59:36.980Z,18.50
